createdAt,value
2023-05-19T00:01:19.262Z,100699.70
2023-05-19T00:03:54.780Z,100708.89
2023-05-19T00:06:26.991Z,100707.77
2023-05-19T00:09:03.458Z,100715.82
2023-05-19T00:11:38.937Z,100721.09
2023-05-19T00:14:09.406Z,100720.22
2023-05-19T00:16:39.974Z,100711.31
2023-05-19T00:19:12.410Z,100712.42
2023-05-19T00:21:42.163Z,100726.05
2023-05-19T00:24:11.779Z,100727.95
2023-05-19T00:26:41.589Z,100725.13
2023-05-19T00:29:10.190Z,100734.33
2023-05-19T00:31:40.005Z,100735.72
2023-05-19T00:34:11.141Z,100735.68
2023-05-19T00:36:41.463Z,100734.55
2023-05-19T00:39:11.204Z,100726.45
2023-05-19T00:41:40.475Z,100732.81
2023-05-19T00:44:09.250Z,100745.05
2023-05-19T00:46:39.870Z,100732.19
2023-05-19T00:49:09.402Z,100740.80
2023-05-19T00:51:39.721Z,100742.41
2023-05-19T00:54:08.821Z,100739.03
2023-05-19T00:56:40.278Z,100739.80
2023-05-19T00:59:10.109Z,100737.27
2023-05-19T01:01:40.188Z,100736.14
2023-05-19T01:04:11.518Z,100737.20
2023-05-19T01:06:42.087Z,100753.05
2023-05-19T01:09:11.702Z,100753.55
2023-05-19T01:11:41.159Z,100757.69
2023-05-19T01:14:11.019Z,100751.53
2023-05-19T01:17:07.793Z,100749.30
2023-05-19T01:19:57.659Z,100757.89
2023-05-19T01:22:38.230Z,100764.81
2023-05-19T01:25:29.285Z,100771.17
2023-05-19T01:28:27.935Z,100773.59
2023-05-19T01:30:58.608Z,100768.02
2023-05-19T01:33:29.313Z,100765.20
2023-05-19T01:35:58.203Z,100771.56
2023-05-19T01:38:29.016Z,100769.58
2023-05-19T01:41:00.143Z,100770.08
2023-05-19T01:43:30.302Z,100766.95
2023-05-19T01:45:59.494Z,100764.67
2023-05-19T01:48:28.708Z,100772.17
2023-05-19T01:51:00.578Z,100776.89
2023-05-19T01:53:30.666Z,100775.16
2023-05-19T01:56:00.502Z,100778.74
2023-05-19T01:58:47.406Z,100766.18
2023-05-19T02:01:39.063Z,100772.29
2023-05-19T02:04:32.858Z,100769.55
2023-05-19T02:07:09.991Z,100762.26
2023-05-19T02:09:53.617Z,100767.72
2023-05-19T02:12:35.668Z,100772.09
2023-05-19T02:15:11.798Z,100779.30
2023-05-19T02:17:42.980Z,100781.78
2023-05-19T02:20:12.285Z,100780.89
2023-05-19T02:22:41.375Z,100784.52
2023-05-19T02:25:10.853Z,100781.98
2023-05-19T02:27:41.456Z,100781.69
2023-05-19T02:30:11.025Z,100781.64
2023-05-19T02:32:40.487Z,100784.12
2023-05-19T02:35:10.458Z,100786.60
2023-05-19T02:37:40.190Z,100791.61
2023-05-19T02:40:10.959Z,100789.38
2023-05-19T02:42:40.121Z,100789.38
2023-05-19T02:45:10.066Z,100794.94
2023-05-19T02:47:39.787Z,100800.50
2023-05-19T02:50:09.997Z,100801.59
2023-05-19T02:52:39.216Z,100798.27
2023-05-19T02:55:08.937Z,100793.55
2023-05-19T02:57:37.744Z,100796.03
2023-05-19T03:00:08.495Z,100802.69
2023-05-19T03:02:39.583Z,100805.47
2023-05-19T03:05:10.477Z,100802.69
2023-05-19T03:07:40.255Z,100804.13
2023-05-19T03:10:09.371Z,100806.11
2023-05-19T03:12:38.144Z,100805.27
2023-05-19T03:15:08.416Z,100809.39
2023-05-19T03:17:37.489Z,100810.53
2023-05-19T03:20:08.097Z,100820.27
2023-05-19T03:22:37.675Z,100829.99
2023-05-19T03:25:07.741Z,100831.38
2023-05-19T03:27:37.010Z,100828.91
2023-05-19T03:30:07.315Z,100824.73
2023-05-19T03:32:40.136Z,100825.82
2023-05-19T03:35:10.356Z,100817.78
2023-05-19T03:37:40.053Z,100811.03
2023-05-19T03:40:11.268Z,100814.60
2023-05-19T03:42:40.830Z,100807.05
2023-05-19T03:45:10.713Z,100819.56
2023-05-19T03:47:39.978Z,100825.72
2023-05-19T03:50:11.822Z,100838.03
2023-05-19T03:52:47.331Z,100831.98
2023-05-19T03:55:28.867Z,100836.70
2023-05-19T03:57:58.536Z,100832.28
2023-05-19T04:00:27.825Z,100832.58
2023-05-19T04:02:56.722Z,100836.20
2023-05-19T04:05:27.584Z,100832.88
2023-05-19T04:08:17.971Z,100838.19
2023-05-19T04:10:47.800Z,100832.68
2023-05-19T04:13:16.783Z,100834.97
2023-05-19T04:15:46.450Z,100837.80
2023-05-19T04:18:16.961Z,100834.22
2023-05-19T04:20:45.919Z,100835.06
2023-05-19T04:23:14.783Z,100833.92
2023-05-19T04:25:43.783Z,100843.66
2023-05-19T04:28:13.100Z,100846.69
2023-05-19T04:30:42.913Z,100852.24
2023-05-19T04:33:11.928Z,100855.33
2023-05-19T04:35:41.901Z,100865.36
2023-05-19T04:38:13.598Z,100864.27
2023-05-19T04:40:43.224Z,100861.19
2023-05-19T04:43:12.406Z,100859.80
2023-05-19T04:45:42.670Z,100863.07
2023-05-19T04:48:14.001Z,100871.31
2023-05-19T04:50:42.763Z,100874.03
2023-05-19T04:53:12.025Z,100879.05
2023-05-19T04:55:42.300Z,100874.34
2023-05-19T04:58:11.483Z,100875.97
2023-05-19T05:00:40.515Z,100880.14
2023-05-19T05:03:14.226Z,100879.00
2023-05-19T05:05:43.197Z,100884.80
2023-05-19T05:08:13.276Z,100886.39
2023-05-19T05:10:43.747Z,100877.45
2023-05-19T05:13:14.924Z,100887.18
2023-05-19T05:15:45.122Z,100887.18
2023-05-19T05:18:16.638Z,100884.09
2023-05-19T05:20:46.864Z,100891.35
2023-05-19T05:23:17.197Z,100891.35
2023-05-19T05:25:49.022Z,100885.79
2023-05-19T05:28:20.748Z,100891.05
2023-05-19T05:30:51.657Z,100901.08
2023-05-19T05:33:22.030Z,100901.08
2023-05-19T05:35:51.228Z,100897.21
2023-05-19T05:38:21.599Z,100898.11
2023-05-19T05:40:50.946Z,100906.20
2023-05-19T05:43:19.716Z,100914.84
2023-05-19T05:45:57.261Z,100911.58
2023-05-19T05:48:27.193Z,100911.93
2023-05-19T05:50:57.799Z,100919.48
2023-05-19T05:53:30.519Z,100921.47
2023-05-19T05:56:01.996Z,100919.89
2023-05-19T05:58:37.379Z,100924.95
2023-05-19T06:01:08.858Z,100925.25
2023-05-19T06:03:40.604Z,100933.35
2023-05-19T06:06:11.515Z,100930.57
2023-05-19T06:08:41.582Z,100931.96
2023-05-19T06:11:10.329Z,100928.87
2023-05-19T06:13:43.806Z,100936.67
2023-05-19T06:16:14.732Z,100935.89
2023-05-19T06:18:46.566Z,100935.09
2023-05-19T06:21:15.614Z,100937.09
2023-05-19T06:23:44.592Z,100945.23
2023-05-19T06:26:13.797Z,100947.22
2023-05-19T06:28:43.769Z,100945.29
2023-05-19T06:31:12.575Z,100948.37
2023-05-19T06:33:46.291Z,100941.95
2023-05-19T06:36:15.509Z,100947.03
2023-05-19T06:38:46.279Z,100945.69
2023-05-19T06:41:15.626Z,100941.27
2023-05-19T06:43:44.531Z,100943.56
2023-05-19T06:46:17.658Z,100941.63
2023-05-19T06:48:48.456Z,100948.08
2023-05-19T06:51:19.719Z,100941.97
2023-05-19T06:53:50.356Z,100946.69
2023-05-19T06:56:19.253Z,100948.92
2023-05-19T06:58:48.213Z,100945.43
2023-05-19T07:01:16.855Z,100945.48
2023-05-19T07:03:47.645Z,100945.53
2023-05-19T07:06:17.766Z,100946.18
2023-05-19T07:08:47.795Z,100946.28
2023-05-19T07:11:17.552Z,100947.47
2023-05-19T07:13:46.912Z,100941.48
2023-05-19T07:16:17.705Z,100953.30
2023-05-19T07:18:47.359Z,100951.76
2023-05-19T07:21:16.565Z,100952.14
2023-05-19T07:23:46.507Z,100954.52
2023-05-19T07:26:15.430Z,100957.81
2023-05-19T07:28:44.396Z,100952.72
2023-05-19T07:31:13.465Z,100954.06
2023-05-19T07:33:42.680Z,100957.12
2023-05-19T07:36:13.096Z,100954.83
2023-05-19T07:38:42.018Z,100958.72
2023-05-19T07:41:11.434Z,100953.36
2023-05-19T07:43:41.801Z,100963.06
2023-05-19T07:46:11.412Z,100966.31
2023-05-19T07:48:40.801Z,100954.44
2023-05-19T07:51:10.119Z,100954.56
2023-05-19T07:53:42.526Z,100951.02
2023-05-19T07:56:12.142Z,100952.77
2023-05-19T07:58:44.222Z,100948.13
2023-05-19T08:01:13.377Z,100945.47
2023-05-19T08:03:42.850Z,100953.14
2023-05-19T08:06:14.325Z,100951.45
2023-05-19T08:08:44.165Z,100944.71
2023-05-19T08:11:19.397Z,100942.46
2023-05-19T08:13:51.510Z,100957.24
2023-05-19T08:16:21.459Z,100942.84
2023-05-19T08:18:50.158Z,100956.14
2023-05-19T08:21:18.949Z,100953.98
2023-05-19T08:23:48.844Z,100960.18
2023-05-19T08:26:18.594Z,100943.05
2023-05-19T08:28:47.806Z,100953.89
2023-05-19T08:31:18.358Z,100956.63
2023-05-19T08:33:47.862Z,100949.39
2023-05-19T08:36:16.824Z,100959.53
2023-05-19T08:38:46.023Z,100955.63
2023-05-19T08:41:16.482Z,100961.83
2023-05-19T08:43:46.173Z,100965.78
2023-05-19T08:46:16.340Z,100954.84
2023-05-19T08:48:45.303Z,100958.23
2023-05-19T08:51:24.938Z,100954.87
2023-05-19T08:53:55.453Z,100961.59
2023-05-19T08:56:25.000Z,100960.19
2023-05-19T08:58:54.178Z,100959.33
2023-05-19T09:01:23.693Z,100975.05
2023-05-19T09:03:52.420Z,100959.91
2023-05-19T09:06:21.715Z,100971.69
2023-05-19T09:08:52.093Z,100966.60
2023-05-19T09:11:22.429Z,100953.09
2023-05-19T09:13:53.257Z,100967.66
2023-05-19T09:16:22.246Z,100972.39
2023-05-19T09:18:57.663Z,100964.52
2023-05-19T09:21:32.758Z,100962.83
2023-05-19T09:24:07.447Z,100964.99
2023-05-19T09:26:40.451Z,100961.33
2023-05-19T09:29:17.166Z,100969.73
2023-05-19T09:31:52.044Z,100959.37
2023-05-19T09:34:21.807Z,100963.84
2023-05-19T09:36:52.848Z,100959.93
2023-05-19T09:39:26.016Z,100961.91
2023-05-19T09:41:55.804Z,100952.69
2023-05-19T09:44:30.148Z,100964.77
2023-05-19T09:46:59.632Z,100961.64
2023-05-19T09:49:29.949Z,100964.42
2023-05-19T09:52:00.347Z,100966.08
2023-05-19T09:54:29.968Z,100964.67
2023-05-19T09:57:03.468Z,100972.17
2023-05-19T09:59:33.742Z,100967.69
2023-05-19T10:02:03.263Z,100963.77
2023-05-19T10:04:32.508Z,100963.55
2023-05-19T10:07:03.477Z,100961.61
2023-05-19T10:09:33.736Z,100957.41
2023-05-19T10:12:02.814Z,100956.55
2023-05-19T10:14:31.699Z,100944.53
2023-05-19T10:17:00.749Z,100952.94
2023-05-19T10:19:31.759Z,100952.11
2023-05-19T10:22:00.933Z,100955.47
2023-05-19T10:24:30.236Z,100951.83
2023-05-19T10:27:05.607Z,100957.97
2023-05-19T10:29:37.821Z,100952.64
2023-05-19T10:32:12.423Z,100955.72
2023-05-19T10:35:24.821Z,100950.91
2023-05-19T10:38:34.546Z,100943.62
2023-05-19T10:41:26.781Z,100947.50
2023-05-19T10:44:12.143Z,100951.43
2023-05-19T10:46:42.794Z,100946.11
2023-05-19T10:49:11.462Z,100950.59
2023-05-19T10:51:40.268Z,100944.43
2023-05-19T10:54:10.303Z,100945.82
2023-05-19T10:56:42.161Z,100945.81
2023-05-19T10:59:32.097Z,100941.30
2023-05-19T11:02:05.411Z,100937.11
2023-05-19T11:04:52.235Z,100941.59
2023-05-19T11:07:22.189Z,100942.98
2023-05-19T11:09:52.796Z,100936.02
2023-05-19T11:12:25.459Z,100940.20
2023-05-19T11:14:55.079Z,100946.61
2023-05-19T11:17:27.130Z,100953.07
2023-05-19T11:19:56.967Z,100953.91
2023-05-19T11:22:27.302Z,100961.18
2023-05-19T11:24:56.224Z,100961.71
2023-05-19T11:27:33.148Z,100963.64
2023-05-19T11:30:14.829Z,100962.22
2023-05-19T11:32:47.276Z,100961.93
2023-05-19T11:35:18.740Z,100967.23
2023-05-19T11:37:47.694Z,100967.21
2023-05-19T11:40:17.287Z,100969.15
2023-05-19T11:42:45.979Z,100961.52
2023-05-19T11:45:14.849Z,100964.28
2023-05-19T11:48:01.234Z,100966.53
2023-05-19T11:50:19.835Z,100964.30
2023-05-19T11:52:48.977Z,100966.80
2023-05-19T11:55:21.491Z,100972.36
2023-05-19T11:58:04.492Z,100968.16
2023-05-19T12:00:38.985Z,100969.04
2023-05-19T12:03:07.777Z,100975.77
2023-05-19T12:05:41.843Z,100980.25
2023-05-19T12:08:09.222Z,100978.00
2023-05-19T12:10:38.698Z,100981.89
2023-05-19T12:13:11.011Z,100968.16
2023-05-19T12:15:40.171Z,100978.23
2023-05-19T12:18:09.481Z,100971.52
2023-05-19T12:20:38.381Z,100969.78
2023-05-19T12:23:07.909Z,100968.63
2023-05-19T12:25:38.259Z,100968.33
2023-05-19T12:28:07.091Z,100962.42
2023-05-19T12:30:36.596Z,100962.94
2023-05-19T12:33:06.118Z,100963.45
2023-05-19T12:35:37.859Z,100955.36
2023-05-19T12:38:10.668Z,100971.87
2023-05-19T12:40:39.966Z,100961.77
2023-05-19T12:43:10.192Z,100965.39
2023-05-19T12:45:42.928Z,100967.57
2023-05-19T12:48:14.836Z,100966.11
2023-05-19T12:50:46.204Z,100966.59
2023-05-19T12:53:15.942Z,100965.17
2023-05-19T12:55:45.998Z,100965.16
2023-05-19T12:58:16.370Z,100961.22
2023-05-19T13:00:47.681Z,100955.00
2023-05-19T13:03:20.279Z,100952.48
2023-05-19T13:05:51.016Z,100965.60
2023-05-19T13:08:21.673Z,100956.90
2023-05-19T13:10:50.519Z,100955.16
2023-05-19T13:13:19.401Z,100956.80
2023-05-19T13:15:52.571Z,100952.56
2023-05-19T13:18:22.291Z,100952.27
2023-05-19T13:20:52.891Z,100953.41
2023-05-19T13:23:22.145Z,100946.16
2023-05-19T13:25:51.765Z,100948.03
2023-05-19T13:28:21.186Z,100941.47
2023-05-19T13:30:51.216Z,100938.65
2023-05-19T13:33:20.684Z,100940.07
2023-05-19T13:35:49.807Z,100935.36
2023-05-19T13:38:18.836Z,100938.70
2023-05-19T13:40:48.209Z,100933.09
2023-05-19T13:43:17.733Z,100939.84
2023-05-19T13:45:47.729Z,100935.63
2023-05-19T13:48:17.014Z,100935.59
2023-05-19T13:50:45.797Z,100924.98
2023-05-19T13:53:14.299Z,100925.84
2023-05-19T13:55:46.882Z,100932.59
2023-05-19T13:58:17.596Z,100930.06
2023-05-19T14:00:46.604Z,100931.20
2023-05-19T14:03:17.091Z,100925.88
2023-05-19T14:05:47.413Z,100925.56
2023-05-19T14:08:16.986Z,100929.11
2023-05-19T14:10:52.434Z,100934.84
2023-05-19T14:13:32.685Z,100933.98
2023-05-19T14:15:53.195Z,100933.95
2023-05-19T14:18:22.344Z,100938.92
2023-05-19T14:20:51.180Z,100936.67
2023-05-19T14:23:21.274Z,100941.16
2023-05-19T14:25:50.476Z,100933.34
2023-05-19T14:28:19.622Z,100927.41
2023-05-19T14:30:48.748Z,100931.84
2023-05-19T14:33:17.796Z,100928.47
2023-05-19T14:35:46.765Z,100918.36
2023-05-19T14:38:15.770Z,100928.03
2023-05-19T14:40:47.925Z,100937.47
2023-05-19T14:43:16.947Z,100927.97
2023-05-19T14:45:46.609Z,100935.75
2023-05-19T14:48:15.884Z,100936.30
2023-05-19T14:50:45.156Z,100938.51
2023-05-19T14:53:13.814Z,100937.86
2023-05-19T14:55:43.648Z,100940.00
2023-05-19T14:58:28.351Z,100943.27
2023-05-19T15:00:49.942Z,100936.55
2023-05-19T15:03:19.572Z,100935.13
2023-05-19T15:05:49.041Z,100941.55
2023-05-19T15:08:17.634Z,100942.13
2023-05-19T15:10:50.279Z,100939.95
2023-05-19T15:13:21.545Z,100940.84
2023-05-19T15:16:12.533Z,100938.89
2023-05-19T15:18:27.981Z,100944.18
2023-05-19T15:20:56.550Z,100937.17
2023-05-19T15:23:25.230Z,100933.50
2023-05-19T15:25:54.013Z,100931.78
2023-05-19T15:28:22.979Z,100929.22
2023-05-19T15:30:52.850Z,100929.44
2023-05-19T15:33:21.576Z,100932.16
2023-05-19T15:35:51.860Z,100939.13
2023-05-19T15:38:20.925Z,100933.15
2023-05-19T15:40:51.195Z,100936.67
2023-05-19T15:43:23.121Z,100935.23
2023-05-19T15:45:53.863Z,100936.05
2023-05-19T15:48:22.937Z,100938.53
2023-05-19T15:50:51.840Z,100934.09
2023-05-19T15:53:21.411Z,100932.70
2023-05-19T15:55:51.056Z,100931.86
2023-05-19T15:58:20.563Z,100943.34
2023-05-19T16:00:49.478Z,100934.17
2023-05-19T16:03:19.735Z,100935.90
2023-05-19T16:05:51.658Z,100931.17
2023-05-19T16:08:21.271Z,100940.92
2023-05-19T16:10:50.363Z,100938.73
2023-05-19T16:13:20.476Z,100944.59
2023-05-19T16:15:48.998Z,100947.86
2023-05-19T16:18:17.847Z,100945.84
2023-05-19T16:20:46.831Z,100945.21
2023-05-19T16:23:16.598Z,100949.94
2023-05-19T16:25:45.968Z,100949.06
2023-05-19T16:28:16.170Z,100957.05
2023-05-19T16:30:45.902Z,100960.90
2023-05-19T16:33:14.592Z,100956.38
2023-05-19T16:35:43.852Z,100954.06
2023-05-19T16:38:13.317Z,100959.89
2023-05-19T16:40:42.628Z,100965.17
2023-05-19T16:43:11.934Z,100973.14
2023-05-19T16:45:41.217Z,100971.12
2023-05-19T16:48:10.035Z,100976.94
2023-05-19T16:50:39.798Z,100973.86
2023-05-19T16:53:09.314Z,100975.80
2023-05-19T16:55:38.408Z,100984.66
2023-05-19T16:58:10.538Z,100987.45
2023-05-19T17:00:40.898Z,100985.80
2023-05-19T17:03:10.622Z,100992.22
2023-05-19T17:05:41.755Z,100991.97
2023-05-19T17:08:12.347Z,100990.58
2023-05-19T17:10:41.798Z,100990.88
2023-05-19T17:13:11.614Z,100990.83
2023-05-19T17:15:43.453Z,100989.09
2023-05-19T17:18:14.634Z,100993.23
2023-05-19T17:20:44.117Z,100998.20
2023-05-19T17:23:13.741Z,100998.38
2023-05-19T17:25:43.457Z,100999.97
2023-05-19T17:28:13.433Z,101002.07
2023-05-19T17:30:42.985Z,101000.58
2023-05-19T17:33:12.852Z,101001.08
2023-05-19T17:35:42.291Z,101006.05
2023-05-19T17:38:11.488Z,101008.55
2023-05-19T17:40:42.201Z,101004.61
2023-05-19T17:43:11.839Z,101005.95
2023-05-19T17:45:43.103Z,101010.92
2023-05-19T17:48:12.490Z,101012.02
2023-05-19T17:50:41.795Z,101009.73
2023-05-19T17:53:12.596Z,101016.09
2023-05-19T17:55:43.081Z,101019.67
2023-05-19T17:58:13.974Z,101017.69
2023-05-19T18:00:43.331Z,101029.58
2023-05-19T18:03:13.688Z,101025.36
2023-05-19T18:05:45.213Z,101027.84
2023-05-19T18:08:16.313Z,101029.48
2023-05-19T18:10:48.583Z,101031.36
2023-05-19T18:13:18.688Z,101025.50
2023-05-19T18:15:48.224Z,101033.50
2023-05-19T18:18:18.193Z,101034.28
2023-05-19T18:20:48.162Z,101035.88
2023-05-19T18:23:18.912Z,101031.95
2023-05-19T18:25:53.042Z,101033.25
2023-05-19T18:28:24.288Z,101037.13
2023-05-19T18:31:04.399Z,101036.82
2023-05-19T18:33:34.213Z,101035.38
2023-05-19T18:36:04.264Z,101038.70
2023-05-19T18:38:33.031Z,101043.67
2023-05-19T18:41:02.030Z,101046.70
2023-05-19T18:43:32.189Z,101046.94
2023-05-19T18:46:01.277Z,101045.19
2023-05-19T18:48:32.809Z,101042.11
2023-05-19T18:51:03.920Z,101043.74
2023-05-19T18:53:35.104Z,101043.20
2023-05-19T18:56:05.164Z,101040.42
2023-05-19T18:58:34.661Z,101039.27
2023-05-19T19:01:05.137Z,101041.70
2023-05-19T19:03:35.270Z,101044.17
2023-05-19T19:06:04.849Z,101044.97
2023-05-19T19:08:34.744Z,101038.25
2023-05-19T19:11:04.990Z,101041.28
2023-05-19T19:13:34.227Z,101044.00
2023-05-19T19:16:03.969Z,101047.03
2023-05-19T19:18:35.250Z,101043.64
2023-05-19T19:21:05.642Z,101047.52
2023-05-19T19:23:35.215Z,101041.66
2023-05-19T19:26:05.033Z,101046.61
2023-05-19T19:28:34.958Z,101043.28
2023-05-19T19:31:04.867Z,101044.31
2023-05-19T19:33:35.912Z,101051.51
2023-05-19T19:36:06.853Z,101052.36
2023-05-19T19:38:36.060Z,101045.64
2023-05-19T19:41:05.800Z,101049.82
2023-05-19T19:43:35.255Z,101049.39
2023-05-19T19:46:07.972Z,101054.59
2023-05-19T19:48:41.075Z,101049.76
2023-05-19T19:51:11.249Z,101047.46
2023-05-19T19:53:40.855Z,101050.59
2023-05-19T19:56:11.917Z,101055.48
2023-05-19T19:58:41.122Z,101054.03
2023-05-19T20:01:11.289Z,101056.52
2023-05-19T20:03:40.674Z,101065.94
2023-05-19T20:06:10.330Z,101058.92
2023-05-19T20:08:40.711Z,101063.64
2023-05-19T20:11:14.578Z,101055.78
2023-05-19T20:13:43.400Z,101057.65
2023-05-19T20:16:12.836Z,101059.04
2023-05-19T20:18:42.497Z,101058.13
2023-05-19T20:21:12.008Z,101057.22
2023-05-19T20:23:42.244Z,101057.39
2023-05-19T20:26:13.450Z,101053.94
2023-05-19T20:28:43.111Z,101059.19
2023-05-19T20:31:12.930Z,101060.58
2023-05-19T20:33:43.921Z,101058.34
2023-05-19T20:36:13.336Z,101056.95
2023-05-19T20:38:43.349Z,101053.56
2023-05-19T20:41:13.001Z,101061.30
2023-05-19T20:43:42.258Z,101054.28
2023-05-19T20:46:11.654Z,101061.70
2023-05-19T20:48:41.539Z,101054.39
2023-05-19T20:51:11.330Z,101056.86
2023-05-19T20:53:40.396Z,101063.50
2023-05-19T20:56:10.617Z,101065.44
2023-05-19T20:58:39.979Z,101067.66
2023-05-19T21:01:09.416Z,101072.61
2023-05-19T21:03:39.201Z,101071.70
2023-05-19T21:06:08.630Z,101071.09
2023-05-19T21:08:38.348Z,101067.39
2023-05-19T21:11:08.097Z,101071.25
2023-05-19T21:13:38.900Z,101075.42
2023-05-19T21:16:08.601Z,101077.89
2023-05-19T21:18:38.372Z,101069.70
2023-05-19T21:21:07.986Z,101074.64
2023-05-19T21:23:38.852Z,101077.95
2023-05-19T21:26:08.303Z,101076.80
2023-05-19T21:28:37.733Z,101082.05
2023-05-19T21:31:08.276Z,101079.81
2023-05-19T21:33:38.347Z,101078.90
2023-05-19T21:36:09.360Z,101084.98
2023-05-19T21:38:40.927Z,101082.98
2023-05-19T21:41:10.483Z,101081.77
2023-05-19T21:43:41.995Z,101083.39
2023-05-19T21:46:11.647Z,101082.55
2023-05-19T21:48:41.237Z,101089.10
2023-05-19T21:51:11.039Z,101092.86
2023-05-19T21:53:40.245Z,101086.77
2023-05-19T21:56:10.276Z,101094.48
2023-05-19T21:58:41.334Z,101097.41
2023-05-19T22:01:10.415Z,101097.03
2023-05-19T22:03:40.833Z,101090.87
2023-05-19T22:06:10.114Z,101097.50
2023-05-19T22:08:39.734Z,101091.33
2023-05-19T22:11:10.160Z,101094.57
2023-05-19T22:13:41.051Z,101097.04
2023-05-19T22:16:12.113Z,101093.95
2023-05-19T22:18:42.221Z,101094.42
2023-05-19T22:21:11.675Z,101098.52
2023-05-19T22:23:41.159Z,101096.27
2023-05-19T22:26:11.202Z,101100.91
2023-05-19T22:28:41.324Z,101092.73
2023-05-19T22:31:11.125Z,101097.05
2023-05-19T22:33:41.351Z,101094.70
2023-05-19T22:36:11.680Z,101093.86
2023-05-19T22:38:41.277Z,101097.17
2023-05-19T22:41:11.047Z,101095.47
2023-05-19T22:43:40.560Z,101103.18
2023-05-19T22:46:09.871Z,101095.70
2023-05-19T22:48:39.349Z,101104.87
2023-05-19T22:51:08.512Z,101105.41
2023-05-19T22:53:37.562Z,101097.86
2023-05-19T22:56:07.001Z,101099.79
2023-05-19T22:58:36.345Z,101095.24
2023-05-19T23:01:05.376Z,101097.02
2023-05-19T23:03:36.028Z,101100.55
2023-05-19T23:06:05.906Z,101097.70
2023-05-19T23:08:35.268Z,101099.62
2023-05-19T23:11:04.490Z,101104.02
2023-05-19T23:13:36.137Z,101104.24
2023-05-19T23:16:08.920Z,101104.08
2023-05-19T23:18:40.170Z,101107.39
2023-05-19T23:21:10.390Z,101109.01
2023-05-19T23:23:40.643Z,101103.61
2023-05-19T23:26:09.385Z,101111.08
2023-05-19T23:28:38.409Z,101105.45
2023-05-19T23:31:07.916Z,101106.53
2023-05-19T23:33:38.085Z,101103.14
2023-05-19T23:36:09.599Z,101104.13
2023-05-19T23:38:39.618Z,101100.12
2023-05-19T23:41:08.893Z,101099.73
2023-05-19T23:43:38.222Z,101101.34
2023-05-19T23:46:07.633Z,101106.46
2023-05-19T23:48:38.452Z,101101.83
2023-05-19T23:51:08.373Z,101102.24
2023-05-19T23:53:39.544Z,101097.47
2023-05-19T23:56:08.856Z,101094.22
2023-05-19T23:58:38.024Z,101096.91
